Terminal Aerodrome Forecast
Issued by NWS New Orleans/Baton Rouge, LA

Home | Current Version | Previous Version | Text Only | Print | Product List | Glossary On
Versions: 1 2 3 4 5 6 7 8 9 10 11 12 13 14 15 16 17
000
FTUS44 KLIX 161731
TAFNEW
TAF
KNEW 161731Z 1618/1718 16012KT P6SM BKN100
     FM170100 15007KT P6SM BKN090
     FM170900 17006KT 5SM BR BKN015
     FM171000 17006KT 3SM BR BKN008
     FM171400 17007KT P6SM BKN005
     FM171600 17007KT P6SM SCT015 BKN030=

USA.gov is the U.S. government's official web portal to all federal, state and local government web resources and services.